RYR7TM LOWW-EGSS
Flight info
| Callsign | RYR7TM |
|---|---|
| Flight time | 2h 2m |
| Altitude | 34000 |
| Route | BUWUT DCT DITIS DCT OKG DCT VELIS DCT SWALM DCT NOGRO M40 RINIS |
| Aircraft | A321/M-SDE3FGHIRWY/LB1 |
Departure
| Time | 2026-04-24 16:52 |
|---|---|
| Airport | Vienna International Airport (LOWW) |
Arrival
| Time | 2026-04-24 18:54 |
|---|---|
| Airport | London Stansted Airport (EGSS) |
| Time | Latitude | Longitude | Altitude | Speed | Heading |
|---|---|---|---|---|---|
| 2026-04-24 16:14 | 48.11899 | 16.56020 | 619 ft | 0 kts | 160° |
| 2026-04-24 16:43 | 48.11909 | 16.56015 | 622 ft | 4 kts | 156° |
| 2026-04-24 16:44 | 48.11932 | 16.55996 | 614 ft | 4 kts | 139° |
| 2026-04-24 16:44 | 48.11951 | 16.55967 | 620 ft | 4 kts | 135° |
| 2026-04-24 16:44 | 48.11966 | 16.55952 | 617 ft | 1 kts | 206° |
| 2026-04-24 16:44 | 48.11955 | 16.55942 | 615 ft | 3 kts | 206° |
| 2026-04-24 16:45 | 48.11952 | 16.55941 | 615 ft | 0 kts | 204° |
| 2026-04-24 16:46 | 48.11950 | 16.55939 | 615 ft | 2 kts | 204° |
| 2026-04-24 16:47 | 48.11918 | 16.55917 | 611 ft | 7 kts | 205° |
| 2026-04-24 16:47 | 48.11882 | 16.55891 | 614 ft | 11 kts | 206° |
| 2026-04-24 16:47 | 48.11806 | 16.55836 | 614 ft | 13 kts | 206° |
| 2026-04-24 16:47 | 48.11715 | 16.55785 | 614 ft | 15 kts | 173° |
| 2026-04-24 16:48 | 48.11654 | 16.55909 | 619 ft | 16 kts | 116° |
| 2026-04-24 16:48 | 48.11603 | 16.56064 | 609 ft | 17 kts | 116° |
| 2026-04-24 16:48 | 48.11555 | 16.56209 | 621 ft | 15 kts | 115° |
| 2026-04-24 16:48 | 48.11508 | 16.56359 | 618 ft | 17 kts | 115° |
| 2026-04-24 16:49 | 48.11456 | 16.56516 | 618 ft | 17 kts | 116° |
| 2026-04-24 16:49 | 48.11402 | 16.56680 | 611 ft | 18 kts | 116° |
| 2026-04-24 16:49 | 48.11347 | 16.56851 | 616 ft | 17 kts | 115° |
| 2026-04-24 16:49 | 48.11295 | 16.57014 | 618 ft | 18 kts | 116° |
| 2026-04-24 16:50 | 48.11258 | 16.57124 | 617 ft | 15 kts | 116° |
| 2026-04-24 16:50 | 48.11192 | 16.57327 | 615 ft | 17 kts | 116° |
| 2026-04-24 16:50 | 48.11139 | 16.57489 | 615 ft | 16 kts | 117° |
| 2026-04-24 16:50 | 48.11051 | 16.57508 | 617 ft | 13 kts | 206° |
| 2026-04-24 16:51 | 48.10967 | 16.57441 | 620 ft | 14 kts | 217° |
| 2026-04-24 16:51 | 48.10981 | 16.57331 | 617 ft | 0 kts | 296° |
| 2026-04-24 16:51 | 48.10992 | 16.57296 | 613 ft | 24 kts | 296° |
| 2026-04-24 16:51 | 48.11168 | 16.56760 | 614 ft | 88 kts | 296° |
| 2026-04-24 16:52 | 48.11508 | 16.55711 | 615 ft | 134 kts | 296° |
| 2026-04-24 16:52 | 48.11960 | 16.54309 | 810 ft | 156 kts | 294° |
| 2026-04-24 16:52 | 48.12228 | 16.52728 | 1287 ft | 162 kts | 272° |
| 2026-04-24 16:52 | 48.12186 | 16.50924 | 1624 ft | 183 kts | 272° |
| 2026-04-24 16:53 | 48.12020 | 16.49006 | 2294 ft | 187 kts | 266° |
| 2026-04-24 16:53 | 48.11822 | 16.47026 | 2690 ft | 199 kts | 277° |
| 2026-04-24 16:53 | 48.11928 | 16.44888 | 2976 ft | 220 kts | 282° |
| 2026-04-24 16:53 | 48.12132 | 16.42506 | 3464 ft | 239 kts | 283° |
| 2026-04-24 16:54 | 48.12370 | 16.40013 | 4228 ft | 245 kts | 283° |
| 2026-04-24 16:54 | 48.12623 | 16.37474 | 5124 ft | 248 kts | 283° |
| 2026-04-24 16:54 | 48.12883 | 16.34912 | 6024 ft | 250 kts | 284° |
| 2026-04-24 16:54 | 48.13149 | 16.32326 | 6863 ft | 253 kts | 284° |
| 2026-04-24 16:55 | 48.13422 | 16.29702 | 7651 ft | 258 kts | 284° |
| 2026-04-24 16:55 | 48.13706 | 16.27016 | 8390 ft | 264 kts | 284° |
| 2026-04-24 16:55 | 48.14017 | 16.24282 | 9123 ft | 268 kts | 290° |
| 2026-04-24 16:55 | 48.14740 | 16.21732 | 9839 ft | 266 kts | 308° |
| 2026-04-24 16:56 | 48.15964 | 16.19663 | 10401 ft | 271 kts | 324° |
| 2026-04-24 16:56 | 48.17639 | 16.18182 | 10594 ft | 290 kts | 336° |
| 2026-04-24 16:56 | 48.19489 | 16.16837 | 11089 ft | 300 kts | 336° |
| 2026-04-24 16:56 | 48.21381 | 16.15457 | 11715 ft | 305 kts | 336° |
| 2026-04-24 16:57 | 48.23300 | 16.14049 | 12366 ft | 310 kts | 336° |
| 2026-04-24 16:57 | 48.25251 | 16.12610 | 13026 ft | 315 kts | 336° |
| 2026-04-24 16:57 | 48.27231 | 16.11146 | 13697 ft | 320 kts | 336° |
| 2026-04-24 16:57 | 48.29239 | 16.09660 | 14295 ft | 324 kts | 336° |
| 2026-04-24 16:58 | 48.31271 | 16.08152 | 14900 ft | 327 kts | 336° |
| 2026-04-24 16:58 | 48.33320 | 16.06626 | 15509 ft | 330 kts | 336° |
| 2026-04-24 16:58 | 48.35387 | 16.05082 | 16110 ft | 333 kts | 336° |
| 2026-04-24 16:58 | 48.37476 | 16.03521 | 16710 ft | 336 kts | 336° |
| 2026-04-24 16:59 | 48.39581 | 16.01949 | 17306 ft | 340 kts | 336° |
| 2026-04-24 16:59 | 48.41710 | 16.00359 | 17910 ft | 343 kts | 336° |
| 2026-04-24 16:59 | 48.46023 | 15.97135 | 18992 ft | 350 kts | 336° |
| 2026-04-24 17:00 | 48.48213 | 15.95494 | 19527 ft | 353 kts | 336° |
| 2026-04-24 17:00 | 48.52650 | 15.92168 | 20614 ft | 359 kts | 338° |
| 2026-04-24 17:00 | 48.54885 | 15.90445 | 21127 ft | 364 kts | 334° |
| 2026-04-24 17:01 | 48.58683 | 15.85166 | 22115 ft | 385 kts | 310° |
| 2026-04-24 17:01 | 48.60197 | 15.81789 | 22583 ft | 390 kts | 310° |
| 2026-04-24 17:02 | 48.63275 | 15.74942 | 23566 ft | 398 kts | 311° |
| 2026-04-24 17:02 | 48.64840 | 15.71473 | 23964 ft | 402 kts | 311° |
| 2026-04-24 17:02 | 48.66421 | 15.67963 | 24357 ft | 405 kts | 311° |
| 2026-04-24 17:02 | 48.67988 | 15.64477 | 24753 ft | 408 kts | 311° |
| 2026-04-24 17:03 | 48.71071 | 15.57168 | 25530 ft | 418 kts | 306° |
| 2026-04-24 17:03 | 48.72490 | 15.53311 | 25920 ft | 421 kts | 306° |
| 2026-04-24 17:03 | 48.73916 | 15.49428 | 26292 ft | 424 kts | 306° |
| 2026-04-24 17:04 | 48.75350 | 15.45514 | 26670 ft | 426 kts | 306° |
| 2026-04-24 17:04 | 48.78243 | 15.37600 | 27406 ft | 432 kts | 306° |
| 2026-04-24 17:04 | 48.79699 | 15.33600 | 27756 ft | 435 kts | 306° |
| 2026-04-24 17:05 | 48.81278 | 15.29703 | 28109 ft | 431 kts | 312° |
| 2026-04-24 17:05 | 48.83025 | 15.25990 | 28460 ft | 434 kts | 313° |
| 2026-04-24 17:05 | 48.86564 | 15.18510 | 29170 ft | 439 kts | 313° |
| 2026-04-24 17:06 | 48.88351 | 15.14736 | 29512 ft | 441 kts | 313° |
| 2026-04-24 17:06 | 48.91923 | 15.07093 | 30190 ft | 447 kts | 311° |
| 2026-04-24 17:06 | 48.93692 | 15.03188 | 30479 ft | 449 kts | 311° |
| 2026-04-24 17:07 | 48.94857 | 15.00586 | 30682 ft | 451 kts | 310° |
| 2026-04-24 17:07 | 48.97215 | 14.95289 | 31083 ft | 453 kts | 310° |
| 2026-04-24 17:07 | 49.00768 | 14.87323 | 31677 ft | 456 kts | 310° |
| 2026-04-24 17:08 | 49.04351 | 14.79320 | 32333 ft | 457 kts | 310° |
| 2026-04-24 17:08 | 49.06137 | 14.75323 | 32752 ft | 455 kts | 310° |
| 2026-04-24 17:08 | 49.07920 | 14.71332 | 33152 ft | 454 kts | 310° |
| 2026-04-24 17:09 | 49.11461 | 14.63388 | 33959 ft | 452 kts | 310° |
| 2026-04-24 17:09 | 49.14980 | 14.55457 | 34676 ft | 450 kts | 310° |
| 2026-04-24 17:10 | 49.16728 | 14.51504 | 35052 ft | 448 kts | 310° |
| 2026-04-24 17:10 | 49.21932 | 14.39719 | 35998 ft | 445 kts | 310° |
| 2026-04-24 17:12 | 49.35609 | 14.08541 | 36078 ft | 441 kts | 309° |
| 2026-04-24 18:54 | 51.89151 | 0.24738 | 346 ft | 0 kts | 67° |
| 2026-04-24 18:55 | 51.89165 | 0.24795 | 347 ft | 6 kts | 71° |
| 2026-04-24 18:55 | 51.89164 | 0.24864 | 346 ft | 5 kts | 122° |
| 2026-04-24 18:55 | 51.89155 | 0.24887 | 354 ft | 2 kts | 115° |
| 2026-04-24 18:56 | 51.89156 | 0.24885 | 354 ft | 0 kts | 118° |
| 2026-04-24 18:56 | 51.89156 | 0.24887 | 354 ft | 0 kts | 111° |
| 2026-04-24 18:56 | 51.89156 | 0.24885 | 354 ft | 0 kts | 114° |
| 2026-04-24 18:56 | 51.89156 | 0.24949 | 349 ft | 15 kts | 56° |
| 2026-04-24 18:57 | 51.89224 | 0.25070 | 354 ft | 13 kts | 55° |
| 2026-04-24 18:57 | 51.89222 | 0.25205 | 352 ft | 12 kts | 124° |
| 2026-04-24 18:57 | 51.89176 | 0.25312 | 350 ft | 12 kts | 119° |
| 2026-04-24 18:57 | 51.89171 | 0.25412 | 349 ft | 7 kts | 60° |
| 2026-04-24 18:58 | 51.89184 | 0.25444 | 358 ft | 0 kts | 57° |